Time;durP1;ratioP1;P1;durP2;ratioP2;P2;SDS_P1;SDS_P2;PMS_P1;PMS_P2;Temp;Humidity;BMP_temperature;BMP_pressure;BME280_temperature;BME280_humidity;BME280_pressure;Samples;Min_cycle;Max_cycle;Signal;HPM_P1;HPM_P2
2023/03/18 00:02:13;;;;;;;26.52;13.32;;;;;;;1.76;100.00;100322.44;5055567;28;20036;-75
2023/03/18 00:05:00;;;;;;;28.20;12.77;;;;;;;1.73;100.00;100326.13;5053529;28;20115;-76
2023/03/18 00:07:36;;;;;;;27.70;11.48;;;;;;;1.71;100.00;100314.50;5052968;28;20116;-76
2023/03/18 00:10:09;;;;;;;29.15;12.57;;;;;;;1.59;100.00;100307.50;5052927;28;20063;-75
2023/03/18 00:12:37;;;;;;;28.67;12.60;;;;;;;1.61;100.00;100304.22;5052768;28;20039;-75
2023/03/18 00:15:07;;;;;;;23.17;11.63;;;;;;;1.59;100.00;100303.88;5053243;28;20039;-75
2023/03/18 00:17:33;;;;;;;21.35;11.35;;;;;;;1.59;100.00;100312.34;5053093;28;20036;-75
2023/03/18 00:20:04;;;;;;;26.40;12.13;;;;;;;1.61;100.00;100304.22;5054315;28;20128;-76
2023/03/18 00:22:34;;;;;;;;;;;;;;;1.60;100.00;100297.78;5055691;28;20478;-74
2023/03/18 00:25:02;;;;;;;27.73;13.10;;;;;;;1.57;100.00;100297.88;5053681;28;19920;-74
2023/03/18 00:27:27;;;;;;;30.50;12.32;;;;;;;1.55;100.00;100289.88;5051095;28;20094;-74
2023/03/18 00:29:53;;;;;;;22.73;12.45;;;;;;;1.51;100.00;100291.94;5048175;28;20044;-75
2023/03/18 00:32:20;;;;;;;28.20;12.43;;;;;;;1.47;100.00;100280.75;5053750;28;20386;-75
2023/03/18 00:34:49;;;;;;;24.33;11.35;;;;;;;1.47;100.00;100279.97;5054732;28;20393;-75
2023/03/18 00:37:29;;;;;;;24.33;11.52;;;;;;;1.41;100.00;100279.66;5050934;28;20112;-74
2023/03/18 00:40:09;;;;;;;19.10;10.40;;;;;;;1.40;100.00;100278.06;5053694;28;20108;-75
2023/03/18 00:42:46;;;;;;;23.88;10.95;;;;;;;1.32;100.00;100279.44;5037791;28;20387;-75
2023/03/18 00:45:15;;;;;;;22.17;10.23;;;;;;;1.34;100.00;100276.19;5053823;28;20120;-73
2023/03/18 00:47:43;;;;;;;20.45;10.30;;;;;;;1.34;100.00;100287.47;5037241;28;20044;-75
2023/03/18 00:50:11;;;;;;;21.13;8.95;;;;;;;1.31;100.00;100289.09;5054423;28;20435;-74
2023/03/18 00:52:37;;;;;;;22.83;10.80;;;;;;;1.30;100.00;100279.09;5052879;28;20509;-74
2023/03/18 00:55:07;;;;;;;21.60;10.68;;;;;;;1.27;100.00;100282.75;5053668;28;20033;-74
2023/03/18 00:57:33;;;;;;;22.05;9.52;;;;;;;1.34;100.00;100284.66;5054750;28;20029;-75
2023/03/18 00:59:59;;;;;;;24.88;10.80;;;;;;;1.29;100.00;100277.50;5053660;28;20386;-75
2023/03/18 01:02:27;;;;;;;21.70;11.20;;;;;;;1.29;100.00;100282.31;5053221;28;20462;-75
2023/03/18 01:04:53;;;;;;;24.77;11.13;;;;;;;1.27;100.00;100281.94;5045882;28;20047;-75
2023/03/18 01:07:20;;;;;;;18.90;9.57;;;;;;;1.26;100.00;100283.97;5054129;28;20108;-75
2023/03/18 01:09:45;;;;;;;15.70;8.98;;;;;;;1.26;100.00;100288.78;5054391;28;20458;-74
2023/03/18 01:12:13;;;;;;;19.08;9.13;;;;;;;1.24;100.00;100283.63;5054092;28;20120;-74
2023/03/18 01:14:40;;;;;;;20.38;9.88;;;;;;;1.25;100.00;100288.03;5052993;28;20479;-74
2023/03/18 01:17:07;;;;;;;26.00;10.27;;;;;;;1.23;100.00;100290.47;5052906;28;20079;-73
2023/03/18 01:19:34;;;;;;;17.77;9.30;;;;;;;1.16;100.00;100284.94;5054079;28;20036;-75
2023/03/18 01:22:01;;;;;;;24.88;11.75;;;;;;;1.15;100.00;100277.75;5054048;28;20432;-74
2023/03/18 01:24:27;;;;;;;21.10;9.48;;;;;;;1.18;100.00;100281.72;5054134;28;20031;-75
2023/03/18 01:26:54;;;;;;;22.25;8.88;;;;;;;1.11;100.00;100262.94;5053922;28;20107;-75
2023/03/18 01:29:22;;;;;;;19.38;8.57;;;;;;;0.94;100.00;100241.56;5054400;28;20095;-73
2023/03/18 01:32:09;;;;;;;21.65;9.43;;;;;;;1.16;100.00;100276.50;5053627;28;20036;-74
2023/03/18 01:34:36;;;;;;;17.88;8.98;;;;;;;1.10;100.00;100267.00;5052986;28;20090;-74
2023/03/18 01:37:12;;;;;;;20.55;10.57;;;;;;;1.13;100.00;100283.00;5034113;28;20048;-74
2023/03/18 01:39:38;;;;;;;23.92;10.15;;;;;;;1.11;100.00;100273.41;5053158;28;20032;-73
2023/03/18 01:42:05;;;;;;;19.08;10.18;;;;;;;1.10;100.00;100272.63;5035660;28;20112;-72
2023/03/18 01:44:45;;;;;;;18.20;8.82;;;;;;;1.06;100.00;100285.16;5051743;28;20036;-73
2023/03/18 01:47:12;;;;;;;22.23;8.75;;;;;;;1.01;100.00;100275.97;5053391;28;20107;-74
2023/03/18 01:49:46;;;;;;;28.58;11.15;;;;;;;0.91;100.00;100265.69;5053117;28;20116;-75
2023/03/18 01:52:17;;;;;;;23.73;9.52;;;;;;;0.99;100.00;100277.63;5053666;28;20025;-74
2023/03/18 01:55:06;;;;;;;17.52;8.18;;;;;;;1.00;100.00;100259.53;5053435;28;20059;-73
2023/03/18 01:57:33;;;;;;;24.85;9.82;;;;;;;0.95;100.00;100265.66;5033483;28;20068;-74
2023/03/18 02:00:00;;;;;;;19.05;9.57;;;;;;;1.00;100.00;100259.53;5035580;28;20031;-74
2023/03/18 02:02:27;;;;;;;20.50;9.80;;;;;;;0.96;100.00;100251.13;5051792;28;20116;-74
2023/03/18 02:05:00;;;;;;;16.98;8.65;;;;;;;1.01;100.00;100261.91;5052323;28;20029;-73
2023/03/18 02:07:32;;;;;;;18.65;8.85;;;;;;;1.03;100.00;100255.84;5035640;28;20517;-76
2023/03/18 02:10:10;;;;;;;22.15;8.77;;;;;;;1.05;100.00;100264.66;5035824;28;20478;-74
2023/03/18 02:12:42;;;;;;;21.73;8.68;;;;;;;1.07;100.00;100264.22;5052523;28;20045;-73
2023/03/18 02:15:15;;;;;;;23.52;8.82;;;;;;;0.96;100.00;100247.56;5051929;28;20040;-72
2023/03/18 02:18:00;;;;;;;20.20;8.38;;;;;;;1.01;100.00;100273.16;5051855;28;20501;-78
2023/03/18 02:20:39;;;;;;;15.30;8.73;;;;;;;1.03;100.00;100273.53;5051861;28;20033;-79
2023/03/18 02:23:35;;;;;;;20.42;9.55;;;;;;;1.04;100.00;100268.69;5035421;28;20029;-79
2023/03/18 02:26:09;;;;;;;17.92;8.52;;;;;;;1.10;100.00;100264.19;5052980;28;20084;-80
2023/03/18 02:28:36;;;;;;;19.02;7.60;;;;;;;1.13;100.00;100270.94;5035914;28;20051;-78
2023/03/18 02:31:21;;;;;;;17.38;8.65;;;;;;;1.14;100.00;100267.72;5054495;28;20033;-78
2023/03/18 02:33:46;;;;;;;13.88;7.88;;;;;;;1.12;100.00;100274.97;5052206;28;20206;-73
2023/03/18 02:36:23;;;;;;;14.43;6.90;;;;;;;1.08;100.00;100275.06;5051569;28;20128;-72
2023/03/18 02:38:50;;;;;;;16.05;7.60;;;;;;;1.03;100.00;100259.47;5051617;28;20041;-74
2023/03/18 02:41:23;;;;;;;16.33;7.43;;;;;;;1.12;100.00;100269.34;5052950;28;20064;-73
2023/03/18 02:43:53;;;;;;;15.13;8.52;;;;;;;1.08;100.00;100268.63;5035817;28;20100;-72
2023/03/18 02:46:43;;;;;;;15.98;7.43;;;;;;;1.12;100.00;100267.34;5051303;28;20057;-73
2023/03/18 02:49:09;;;;;;;10.02;5.88;;;;;;;1.15;100.00;100266.50;5051116;28;20079;-73
2023/03/18 02:51:35;;;;;;;11.52;5.90;;;;;;;1.16;100.00;100256.81;5051086;28;20501;-73
2023/03/18 02:54:25;;;;;;;11.25;6.78;;;;;;;1.18;100.00;100262.03;5034688;28;20072;-73
2023/03/18 02:57:05;;;;;;;16.25;7.50;;;;;;;1.21;100.00;100259.13;5054376;28;20033;-75
2023/03/18 02:59:31;;;;;;;14.88;7.38;;;;;;;1.25;100.00;100257.06;5041046;28;20035;-73
2023/03/18 03:02:00;;;;;;;15.45;7.47;;;;;;;1.27;100.00;100253.81;5058870;28;20040;-75
2023/03/18 03:04:42;;;;;;;11.75;7.10;;;;;;;1.32;100.00;100259.72;5058027;28;20036;-74
2023/03/18 03:07:08;;;;;;;12.68;6.03;;;;;;;1.37;100.00;100255.63;5058078;28;20021;-74
2023/03/18 03:09:35;;;;;;;11.07;6.20;;;;;;;1.48;100.00;100256.22;5059085;28;20032;-74
2023/03/18 03:12:01;;;;;;;10.57;6.15;;;;;;;1.56;100.00;100260.47;5058896;28;20021;-73
2023/03/18 03:14:31;;;;;;;13.57;5.60;;;;;;;1.67;100.00;100269.50;5057713;28;20521;-73
2023/03/18 03:16:56;;;;;;;11.57;6.35;;;;;;;1.68;100.00;100273.13;5041223;28;20033;-73
2023/03/18 03:19:24;;;;;;;10.35;6.15;;;;;;;1.69;100.00;100274.72;5058700;28;20494;-73
2023/03/18 03:21:51;;;;;;;17.45;6.70;;;;;;;1.70;100.00;100263.00;5059068;28;20489;-73
2023/03/18 03:24:22;;;;;;;14.13;7.22;;;;;;;1.71;100.00;100270.22;5058016;28;20025;-73
2023/03/18 03:26:48;;;;;;;10.65;5.95;;;;;;;1.75;100.00;100268.13;5041020;28;20139;-74
2023/03/18 03:29:14;;;;;;;13.85;6.43;;;;;;;1.73;100.00;100255.72;5058040;28;20032;-73
2023/03/18 03:31:42;;;;;;;12.35;5.97;;;;;;;1.81;100.00;100266.41;5056752;28;20040;-74
2023/03/18 03:34:09;;;;;;;11.82;5.85;;;;;;;1.82;100.00;100273.63;5040975;28;20386;-74
2023/03/18 03:36:36;;;;;;;12.45;6.45;;;;;;;1.79;100.00;100254.78;5057373;28;20040;-74
2023/03/18 03:39:12;;;;;;;12.35;6.90;;;;;;;1.88;100.00;100280.34;5057611;28;20032;-74
2023/03/18 03:41:39;;;;;;;10.57;5.05;;;;;;;1.84;100.00;100264.75;5057660;28;20029;-77
2023/03/18 03:44:05;;;;;;;14.35;7.15;;;;;;;1.94;100.00;100288.28;5058786;28;20033;-84
2023/03/18 03:46:32;;;;;;;10.95;5.68;;;;;;;1.99;100.00;100279.34;5059053;28;20024;-82
2023/03/18 03:49:00;;;;;;;10.82;5.43;;;;;;;2.06;99.64;100281.97;5059168;28;20028;-81
2023/03/18 03:51:26;;;;;;;9.15;5.43;;;;;;;2.07;99.67;100278.75;5058351;28;20068;-81
2023/03/18 03:53:54;;;;;;;16.42;5.65;;;;;;;2.11;99.00;100284.28;5058077;28;20482;-81
2023/03/18 03:56:21;;;;;;;10.95;5.90;;;;;;;2.16;98.48;100283.78;5058635;28;20063;-82
2023/03/18 03:58:49;;;;;;;11.82;5.65;;;;;;;2.18;98.33;100287.75;5057383;28;20428;-82
2023/03/18 04:01:17;;;;;;;14.57;6.68;;;;;;;2.21;97.62;100294.53;5058769;28;20136;-82
2023/03/18 04:03:43;;;;;;;10.77;6.50;;;;;;;2.23;97.61;100287.25;5057609;28;20013;-82
2023/03/18 04:06:12;;;;;;;10.63;5.50;;;;;;;2.22;97.00;100274.38;5058523;28;20028;-81
2023/03/18 04:08:40;;;;;;;13.05;5.75;;;;;;;2.29;96.80;100290.34;5056127;28;20044;-81
2023/03/18 04:11:06;;;;;;;12.02;5.65;;;;;;;2.31;96.70;100283.03;5054056;28;20025;-75
2023/03/18 04:13:33;;;;;;;18.20;6.18;;;;;;;2.33;96.46;100288.25;5054186;28;20125;-73
2023/03/18 04:15:59;;;;;;;17.80;5.82;;;;;;;2.34;96.37;100287.78;5054162;28;20378;-74
2023/03/18 04:18:26;;;;;;;11.40;5.63;;;;;;;2.34;95.94;100284.97;5055498;28;20020;-74
2023/03/18 04:20:56;;;;;;;10.88;5.10;;;;;;;2.31;96.25;100282.22;5053897;28;20017;-75
2023/03/18 04:23:24;;;;;;;12.30;6.10;;;;;;;2.26;96.03;100286.38;5037450;28;20033;-74
2023/03/18 04:25:52;;;;;;;10.30;5.53;;;;;;;2.23;95.56;100281.63;5055617;28;20041;-74
2023/03/18 04:28:20;;;;;;;16.20;6.50;;;;;;;2.25;95.57;100279.13;5055331;28;20374;-74
2023/03/18 04:30:47;;;;;;;14.98;6.45;;;;;;;2.34;94.90;100301.88;5054905;28;20082;-74
2023/03/18 04:33:13;;;;;;;14.50;6.50;;;;;;;2.35;94.60;100306.28;5037178;28;20135;-75
2023/03/18 04:35:42;;;;;;;11.60;4.97;;;;;;;2.35;94.52;100295.03;5053734;28;20108;-74
2023/03/18 04:38:09;;;;;;;10.65;4.88;;;;;;;2.41;94.06;100303.75;5054870;28;20021;-75
2023/03/18 04:40:36;;;;;;;12.32;6.03;;;;;;;2.42;94.31;100308.19;5053713;28;20029;-74
2023/03/18 04:43:02;;;;;;;9.93;5.53;;;;;;;2.43;93.97;100306.16;5053853;28;20079;-74
2023/03/18 04:45:29;;;;;;;10.35;5.32;;;;;;;2.43;94.00;100301.31;5053124;28;20040;-73
2023/03/18 04:47:55;;;;;;;11.63;5.60;;;;;;;2.46;94.02;100308.88;5054717;28;20027;-74
2023/03/18 04:50:21;;;;;;;9.98;5.50;;;;;;;2.47;94.28;100304.03;5051801;28;20135;-74
2023/03/18 04:52:47;;;;;;;10.95;5.65;;;;;;;2.45;94.32;100304.47;5053265;28;20526;-73
2023/03/18 04:55:16;;;;;;;7.88;5.30;;;;;;;2.35;94.09;100289.38;5036715;28;20045;-74
2023/03/18 04:57:43;;;;;;;11.05;4.93;;;;;;;2.45;94.71;100301.66;5053476;28;20029;-76
2023/03/18 05:00:11;;;;;;;11.98;5.78;;;;;;;2.46;94.89;100302.44;5054767;28;20162;-76
2023/03/18 05:02:42;;;;;;;11.05;6.00;;;;;;;2.46;95.06;100308.88;5053249;28;20021;-76
2023/03/18 05:05:12;;;;;;;10.98;5.28;;;;;;;2.49;95.50;100295.94;5036808;28;20107;-76
2023/03/18 05:07:41;;;;;;;11.70;5.55;;;;;;;2.51;95.31;100299.91;5019978;28;20033;-74
2023/03/18 05:10:08;;;;;;;10.63;5.72;;;;;;;2.53;95.85;100302.28;5053068;28;20110;-75
2023/03/18 05:12:37;;;;;;;10.27;5.57;;;;;;;2.56;95.19;100304.22;5036223;28;20029;-74
2023/03/18 05:15:04;;;;;;;11.23;5.05;;;;;;;2.66;94.83;100303.19;5052874;28;20044;-74
2023/03/18 05:17:29;;;;;;;11.55;5.38;;;;;;;2.75;94.48;100304.16;5052874;28;20085;-75
2023/03/18 05:19:56;;;;;;;13.77;5.45;;;;;;;2.85;93.59;100307.97;5053990;28;20027;-75
2023/03/18 05:22:23;;;;;;;8.38;5.20;;;;;;;3.09;91.66;100312.19;5035953;28;20025;-75
2023/03/18 05:24:49;;;;;;;9.43;4.50;;;;;;;3.27;88.88;100313.78;5052610;28;20056;-75
2023/03/18 05:27:17;;;;;;;7.38;4.07;;;;;;;3.55;85.82;100321.50;5053921;28;20131;-75
2023/03/18 05:29:44;;;;;;;7.28;4.45;;;;;;;3.79;83.67;100317.22;5054028;28;20055;-75
2023/03/18 05:32:11;;;;;;;9.98;4.35;;;;;;;3.98;81.51;100335.28;5053720;28;20064;-75
2023/03/18 05:34:38;;;;;;;7.38;4.00;;;;;;;4.15;80.26;100336.03;5053077;28;20033;-76
2023/03/18 05:37:31;;;;;;;8.57;5.13;;;;;;;4.33;79.61;100341.94;5051607;28;20048;-76
2023/03/18 05:40:08;;;;;;;13.45;5.47;;;;;;;4.41;79.62;100346.16;5052404;28;20033;-77
2023/03/18 05:42:36;;;;;;;10.93;5.28;;;;;;;4.44;79.42;100331.09;5034781;28;20040;-76
2023/03/18 05:45:11;;;;;;;9.95;5.30;;;;;;;4.35;79.91;100325.31;5034316;28;20056;-76
2023/03/18 05:47:40;;;;;;;9.65;5.68;;;;;;;4.34;80.96;100323.72;5017540;28;20116;-76
2023/03/18 05:50:34;;;;;;;14.25;5.72;;;;;;;4.38;81.31;100335.72;5051371;28;20041;-75
2023/03/18 05:53:03;;;;;;;10.40;5.90;;;;;;;4.37;82.12;100329.28;5052596;28;20095;-76
2023/03/18 05:55:41;;;;;;;11.52;5.65;;;;;;;4.34;82.32;100321.69;5052221;28;20470;-75
2023/03/18 05:58:07;;;;;;;10.25;5.78;;;;;;;4.36;81.77;100319.22;5036850;28;20043;-75
2023/03/18 06:00:34;;;;;;;11.38;5.40;;;;;;;4.44;81.52;100312.09;5052242;28;20013;-76
2023/03/18 06:03:05;;;;;;;9.90;5.47;;;;;;;4.63;81.15;100332.94;5051615;28;20033;-76
2023/03/18 06:05:31;;;;;;;8.13;4.13;;;;;;;4.73;78.63;100331.81;5052398;28;20036;-75
2023/03/18 06:07:57;;;;;;;11.02;4.43;;;;;;;4.93;76.09;100338.03;5053305;28;20032;-75
2023/03/18 06:10:32;;;;;;;5.90;4.18;;;;;;;5.09;73.87;100322.97;5053528;28;20067;-75
2023/03/18 06:13:14;;;;;;;9.25;4.10;;;;;;;5.44;70.72;100340.81;5053215;28;20036;-74
2023/03/18 06:15:43;;;;;;;8.65;5.53;;;;;;;5.53;64.64;100329.56;5053144;28;20057;-74
2023/03/18 06:18:09;;;;;;;6.82;4.15;;;;;;;5.98;61.07;100349.03;5053373;28;20024;-76
2023/03/18 06:20:36;;;;;;;7.68;3.65;;;;;;;6.30;59.32;100352.75;5052959;28;20121;-75
2023/03/18 06:23:04;;;;;;;5.65;3.50;;;;;;;6.57;57.47;100359.41;5053072;28;20436;-75
2023/03/18 06:25:30;;;;;;;5.90;4.28;;;;;;;6.81;55.75;100345.50;5053250;28;20115;-76
2023/03/18 06:27:55;;;;;;;5.28;3.60;;;;;;;7.06;53.52;100356.66;5033614;28;20037;-77
2023/03/18 06:30:27;;;;;;;5.03;3.50;;;;;;;7.05;52.42;100326.66;5051567;28;20036;-74
2023/03/18 06:32:53;;;;;;;10.00;4.20;;;;;;;7.64;50.24;100366.44;5050910;28;20175;-73
2023/03/18 06:35:20;;;;;;;4.78;3.72;;;;;;;7.89;48.56;100349.09;5020371;28;20235;-74
2023/03/18 06:37:49;;;;;;;9.35;3.67;;;;;;;8.43;47.94;100353.22;5038821;28;20454;-76
2023/03/18 06:40:17;;;;;;;15.82;4.47;;;;;;;9.07;45.66;100357.47;5035167;28;20032;-76
2023/03/18 06:42:45;;;;;;;5.53;3.10;;;;;;;9.57;44.33;100358.63;5037939;28;20199;-78
2023/03/18 06:45:12;;;;;;;6.90;3.45;;;;;;;9.96;42.74;100353.78;5046297;28;20092;-76
2023/03/18 06:47:38;;;;;;;10.30;3.97;;;;;;;10.25;41.48;100372.25;5041918;28;20390;-76
2023/03/18 06:50:05;;;;;;;9.23;4.13;;;;;;;10.29;40.56;100370.78;5039338;28;20059;-76
2023/03/18 06:52:32;;;;;;;7.55;3.40;;;;;;;10.41;40.03;100361.16;5044759;28;20158;-75
2023/03/18 06:54:59;;;;;;;10.68;3.85;;;;;;;10.46;39.37;100365.41;5042664;28;20045;-77
2023/03/18 06:57:26;;;;;;;7.15;3.63;;;;;;;10.48;38.99;100365.72;5025936;28;20022;-77
2023/03/18 06:59:52;;;;;;;6.68;3.97;;;;;;;10.57;39.02;100367.69;5040779;28;20402;-77
2023/03/18 07:02:22;;;;;;;7.22;3.65;;;;;;;10.62;39.14;100362.09;5043424;28;20090;-75
2023/03/18 07:04:51;;;;;;;6.85;3.70;;;;;;;10.55;39.05;100371.81;5035239;28;20051;-77
2023/03/18 07:07:17;;;;;;;6.75;4.68;;;;;;;10.35;39.35;100356.63;5052771;28;20025;-77
2023/03/18 07:09:43;;;;;;;11.02;3.83;;;;;;;10.44;39.14;100376.53;5034654;28;20029;-83
2023/03/18 07:12:12;;;;;;;4.75;3.13;;;;;;;10.47;38.28;100382.06;5051486;28;20098;-82
2023/03/18 07:14:39;;;;;;;11.95;3.53;;;;;;;10.32;38.55;100355.56;5051196;28;20033;-79
2023/03/18 07:17:07;;;;;;;9.20;4.30;;;;;;;10.31;39.04;100373.16;5051317;28;20025;-82
2023/03/18 07:19:33;;;;;;;7.85;4.43;;;;;;;10.27;38.70;100378.28;5052460;28;20495;-83
2023/03/18 07:22:01;;;;;;;23.42;5.03;;;;;;;10.19;38.66;100374.22;5043866;28;20146;-83
2023/03/18 07:24:29;;;;;;;7.82;4.07;;;;;;;10.20;39.02;100370.09;5031550;28;20572;-79
2023/03/18 07:26:56;;;;;;;8.40;4.10;;;;;;;10.19;38.53;100379.94;5031855;28;20037;-82
2023/03/18 07:29:22;;;;;;;7.38;3.60;;;;;;;10.27;39.01;100386.84;5030752;28;20048;-80
2023/03/18 07:32:03;;;;;;;8.85;3.92;;;;;;;10.40;38.44;100388.16;5031597;28;20021;-80
2023/03/18 07:34:30;;;;;;;7.90;3.58;;;;;;;10.47;38.15;100381.28;5031798;28;20029;-80
2023/03/18 07:36:58;;;;;;;7.13;3.65;;;;;;;10.66;37.66;100388.41;5029790;28;20045;-80
2023/03/18 07:39:24;;;;;;;6.35;3.42;;;;;;;10.79;37.46;100380.31;5031706;28;20037;-81
2023/03/18 07:41:50;;;;;;;8.15;4.20;;;;;;;10.95;37.52;100385.53;5031560;28;20387;-80
2023/03/18 07:44:16;;;;;;;9.05;4.50;;;;;;;11.16;36.95;100380.72;5032234;28;20120;-83
2023/03/18 07:46:43;;;;;;;8.45;4.22;;;;;;;11.40;36.94;100392.03;5045128;28;20414;-79
2023/03/18 07:49:09;;;;;;;7.03;3.70;;;;;;;11.76;36.59;100393.59;5059803;28;20158;-82
2023/03/18 07:51:36;;;;;;;6.18;3.92;;;;;;;12.00;36.19;100381.94;5054554;28;20128;-86
2023/03/18 07:54:03;;;;;;;8.88;3.95;;;;;;;11.86;35.50;100349.22;5056669;28;20033;-85
2023/03/18 07:56:56;;;;;;;6.60;3.83;;;;;;;12.18;35.18;100387.38;5056692;28;20040;-85
2023/03/18 07:59:23;;;;;;;7.63;3.90;;;;;;;12.37;35.21;100373.56;5047887;28;20036;-81
2023/03/18 08:01:51;;;;;;;7.25;3.92;;;;;;;12.79;34.86;100388.09;5064042;28;20516;-78
2023/03/18 08:04:37;;;;;;;8.02;4.13;;;;;;;13.27;34.28;100396.84;5063809;28;20056;-79
2023/03/18 08:07:07;;;;;;;6.88;4.05;;;;;;;13.50;33.67;100380.56;5066642;28;20036;-80
2023/03/18 08:09:43;;;;;;;8.88;3.78;;;;;;;13.85;33.04;100395.44;5057926;28;20041;-83
2023/03/18 08:12:09;;;;;;;9.90;3.95;;;;;;;14.29;32.44;100385.47;5062225;28;20033;-76
2023/03/18 08:14:36;;;;;;;12.25;4.68;;;;;;;14.54;31.54;100360.72;5061306;28;20132;-79
2023/03/18 08:17:07;;;;;;;8.73;3.80;;;;;;;14.81;31.73;100389.56;5070771;28;20068;-78
2023/03/18 08:19:38;;;;;;;5.68;3.90;;;;;;;14.99;31.33;100373.09;5052401;28;20060;-79
2023/03/18 08:22:08;;;;;;;5.80;3.53;;;;;;;15.10;30.81;100382.53;5064668;28;20174;-78
2023/03/18 08:24:44;;;;;;;10.90;4.15;;;;;;;15.08;30.43;100382.25;5068451;28;20437;-78
2023/03/18 08:27:11;;;;;;;13.18;4.40;;;;;;;15.00;30.70;100378.34;5075520;28;20020;-79
2023/03/18 08:29:38;;;;;;;5.05;3.35;;;;;;;14.89;30.82;100386.97;5074084;28;20500;-77
2023/03/18 08:32:09;;;;;;;7.22;3.90;;;;;;;14.68;30.54;100380.63;5065070;28;20071;-77
2023/03/18 08:34:35;;;;;;;7.47;3.80;;;;;;;14.45;31.23;100376.13;5068583;28;20060;-76
2023/03/18 08:37:12;;;;;;;9.85;4.93;;;;;;;14.32;31.49;100379.50;5073296;28;20036;-78
2023/03/18 08:39:45;;;;;;;9.10;4.38;;;;;;;14.24;31.80;100378.38;5051774;28;20083;-76
2023/03/18 08:42:27;;;;;;;9.63;3.53;;;;;;;14.20;31.91;100388.56;5055120;28;20104;-77
2023/03/18 08:44:54;;;;;;;6.40;3.35;;;;;;;14.18;31.80;100386.19;5070123;28;20102;-75
2023/03/18 08:47:24;;;;;;;8.52;4.38;;;;;;;14.16;31.43;100388.81;5054276;28;20043;-76
2023/03/18 08:49:52;;;;;;;6.88;3.50;;;;;;;14.15;31.09;100383.59;5054043;28;20040;-74
2023/03/18 08:52:23;;;;;;;;;;;;;;;14.09;31.43;100374.94;5066452;28;20091;-75
2023/03/18 08:54:50;;;;;;;12.20;3.50;;;;;;;14.12;31.13;100385.41;5068138;28;19944;-73
2023/03/18 08:57:16;;;;;;;9.65;3.55;;;;;;;14.22;30.24;100395.38;5061119;28;20335;-74
2023/03/18 08:59:41;;;;;;;5.75;3.78;;;;;;;14.22;30.24;100377.34;5066439;28;20086;-71
2023/03/18 09:02:11;;;;;;;9.57;3.28;;;;;;;14.36;30.49;100384.97;5062538;28;20055;-71
2023/03/18 09:04:37;;;;;;;5.55;3.25;;;;;;;14.47;30.63;100372.72;5059511;28;20533;-71
2023/03/18 09:07:05;;;;;;;6.93;3.08;;;;;;;14.65;30.06;100378.03;5070673;28;20059;-74
2023/03/18 09:09:30;;;;;;;6.30;2.95;;;;;;;14.79;30.15;100380.66;5056478;28;20032;-72
2023/03/18 09:11:58;;;;;;;10.95;3.30;;;;;;;15.13;29.68;100378.59;5063146;28;20059;-73
2023/03/18 09:14:23;;;;;;;7.47;3.75;;;;;;;15.45;29.47;100370.47;5065565;28;20123;-73
2023/03/18 09:16:49;;;;;;;5.38;3.47;;;;;;;15.70;29.04;100380.16;5057344;28;20128;-75
2023/03/18 09:19:15;;;;;;;8.23;3.97;;;;;;;15.80;28.66;100381.44;5056013;28;20339;-72
2023/03/18 09:21:46;;;;;;;8.57;3.85;;;;;;;15.75;28.48;100379.38;5063493;28;20044;-76
2023/03/18 09:24:13;;;;;;;8.80;3.25;;;;;;;15.74;28.80;100369.16;5059837;28;20187;-75
2023/03/18 09:26:38;;;;;;;5.07;3.40;;;;;;;15.82;28.67;100393.22;5058090;28;20331;-76
2023/03/18 09:29:04;;;;;;;5.00;3.70;;;;;;;16.02;28.50;100371.94;5053709;28;20466;-75
2023/03/18 09:31:34;;;;;;;9.82;3.63;;;;;;;16.12;28.50;100365.34;5065701;28;20123;-75
2023/03/18 09:34:02;;;;;;;4.97;3.20;;;;;;;16.30;28.01;100354.53;5051476;28;20335;-74
2023/03/18 09:36:30;;;;;;;7.88;3.65;;;;;;;16.45;28.43;100372.28;5055384;28;20117;-75
2023/03/18 09:39:16;;;;;;;9.38;3.47;;;;;;;16.44;27.40;100368.63;5059667;28;20125;-76
2023/03/18 09:41:49;;;;;;;5.65;3.10;;;;;;;16.27;28.06;100355.56;5053834;28;20044;-73
2023/03/18 09:44:24;;;;;;;6.35;3.97;;;;;;;16.37;27.59;100366.28;5056001;28;20044;-73
2023/03/18 09:46:58;;;;;;;7.82;2.80;;;;;;;16.47;27.73;100366.75;5072538;28;20044;-75
2023/03/18 09:49:43;;;;;;;8.57;3.72;;;;;;;16.52;28.15;100374.59;5040108;28;20036;-74
2023/03/18 09:52:36;;;;;;;7.15;3.85;;;;;;;16.59;28.03;100373.28;5042281;28;20033;-71
2023/03/18 09:55:28;;;;;;;10.00;4.20;;;;;;;16.63;27.70;100379.56;5033120;28;20108;-74
2023/03/18 09:58:03;;;;;;;7.40;3.63;;;;;;;16.63;28.02;100368.00;5040763;28;20033;-74
2023/03/18 10:00:37;;;;;;;7.65;3.65;;;;;;;16.63;27.05;100379.56;5040845;28;20475;-75
2023/03/18 10:03:20;;;;;;;5.25;3.47;;;;;;;16.34;27.03;100370.25;5049633;28;20043;-74
2023/03/18 10:05:55;;;;;;;5.97;3.13;;;;;;;16.05;27.04;100365.13;5042889;28;20041;-72
2023/03/18 10:08:57;;;;;;;5.05;3.38;;;;;;;15.77;26.93;100375.94;5044554;28;20041;-72
2023/03/18 10:11:34;;;;;;;11.02;5.18;;;;;;;15.54;28.03;100367.31;5021879;28;20036;-71
2023/03/18 10:14:20;;;;;;;4.43;2.83;;;;;;;15.42;27.47;100364.97;5044057;28;20170;-72
2023/03/18 10:17:25;;;;;;;6.53;3.00;;;;;;;15.16;27.90;100371.03;5045342;28;20117;-74
2023/03/18 10:19:58;;;;;;;5.68;3.42;;;;;;;14.98;28.20;100366.56;5028357;28;20462;-73
2023/03/18 10:22:49;;;;;;;8.77;4.18;;;;;;;14.89;28.52;100366.81;5040195;28;20446;-72
2023/03/18 10:25:44;;;;;;;5.13;3.22;;;;;;;14.69;28.82;100367.84;5048769;28;20462;-70
2023/03/18 10:28:44;;;;;;;6.13;3.30;;;;;;;14.48;29.20;100366.44;5042485;28;20036;-71
2023/03/18 10:31:37;;;;;;;5.18;3.53;;;;;;;14.30;28.94;100376.34;5035020;28;20056;-70
2023/03/18 10:34:16;;;;;;;4.53;3.72;;;;;;;14.17;29.50;100364.53;5051094;28;20032;-70
2023/03/18 10:37:04;;;;;;;6.50;3.72;;;;;;;14.21;29.90;100376.56;5051305;28;20128;-71
2023/03/18 10:39:29;;;;;;;8.98;4.22;;;;;;;14.25;29.57;100370.56;5021866;28;20392;-70
2023/03/18 10:41:59;;;;;;;202.80;114.50;;;;;;;14.24;29.58;100381.25;5043501;28;20454;-72
2023/03/18 10:44:35;;;;;;;4.72;3.25;;;;;;;14.24;29.44;100377.59;5036026;28;20390;-72
2023/03/18 10:47:14;;;;;;;8.73;4.03;;;;;;;14.27;30.06;100368.75;5035975;28;20034;-71
2023/03/18 10:50:09;;;;;;;10.48;3.60;;;;;;;14.38;30.14;100374.53;5030917;28;20059;-69
2023/03/18 10:52:53;;;;;;;5.57;3.70;;;;;;;14.52;29.55;100361.25;5037401;28;20052;-73
2023/03/18 10:55:26;;;;;;;52.50;31.48;;;;;;;14.68;29.73;100369.13;5046028;28;20485;-71
2023/03/18 10:57:55;;;;;;;;;;;;;;;14.71;30.22;100361.56;5034625;28;20143;-73
2023/03/18 11:00:32;;;;;;;;;;;;;;;14.81;30.61;100363.69;5035588;28;19917;-72
2023/03/18 11:02:59;;;;;;;7.72;3.95;;;;;;;14.99;30.33;100365.25;5046101;28;20473;-73
2023/03/18 11:05:29;;;;;;;6.53;4.20;;;;;;;14.98;30.12;100357.94;5040218;28;20044;-72
2023/03/18 11:08:10;;;;;;;9.05;3.72;;;;;;;14.97;30.15;100361.34;5041932;28;20045;-70
2023/03/18 11:10:44;;;;;;;7.43;3.88;;;;;;;14.89;30.04;100363.16;5037737;28;20070;-72
2023/03/18 11:13:16;;;;;;;6.30;3.38;;;;;;;14.85;30.10;100354.78;5050692;28;20083;-73
2023/03/18 11:15:55;;;;;;;6.85;4.40;;;;;;;14.77;29.65;100363.13;5049657;28;20466;-71
2023/03/18 11:18:22;;;;;;;10.77;4.28;;;;;;;14.61;30.38;100360.25;5052634;28;20041;-72
2023/03/18 11:20:59;;;;;;;9.55;4.35;;;;;;;14.51;30.59;100362.53;5028936;28;20032;-72
2023/03/18 11:23:55;;;;;;;6.00;3.50;;;;;;;14.36;30.94;100342.66;5031923;28;20502;-72
2023/03/18 11:26:25;;;;;;;4.55;3.38;;;;;;;14.33;31.66;100348.66;5035017;28;20037;-72
2023/03/18 11:28:59;;;;;;;6.32;3.47;;;;;;;14.40;32.66;100345.25;5039169;28;20037;-72
2023/03/18 11:31:26;;;;;;;6.72;4.35;;;;;;;14.49;31.67;100345.00;5006532;28;20486;-70
2023/03/18 11:34:13;;;;;;;;;;;;;;;14.32;31.39;100319.13;5037673;28;20057;-73
2023/03/18 11:36:40;;;;;;;8.13;4.55;;;;;;;14.47;31.30;100353.41;5022381;28;20476;-74
2023/03/18 11:39:06;;;;;;;7.63;4.80;;;;;;;14.43;31.67;100350.75;5022331;28;20026;-73
2023/03/18 11:41:31;;;;;;;6.50;4.22;;;;;;;14.33;31.77;100326.41;5033294;28;20094;-72
2023/03/18 11:44:18;;;;;;;11.35;5.47;;;;;;;14.39;32.07;100332.19;5046514;28;20518;-72